Time;durP1;ratioP1;P1;durP2;ratioP2;P2;SDS_P1;SDS_P2;PMS_P1;PMS_P2;Temp;Humidity;BMP_temperature;BMP_pressure;BME280_temperature;BME280_humidity;BME280_pressure;Samples;Min_cycle;Max_cycle;Signal;HPM_P1;HPM_P2
2023/10/14 08:01:56;;;;;;;23.87;17.70;;;;;;;14.66;100.00;98873.75;6159684;23;20217;-84
2023/10/14 08:04:28;;;;;;;22.30;17.97;;;;;;;14.76;100.00;98883.78;6105758;23;20247;-86
2023/10/14 08:10:16;;;;;;;20.97;17.83;;;;;;;15.00;100.00;98895.72;6150803;23;20222;-87
2023/10/14 08:12:50;;;;;;;19.60;17.40;;;;;;;15.10;100.00;98908.41;6122838;23;20171;-87
2023/10/14 08:15:19;;;;;;;22.57;18.03;;;;;;;15.24;100.00;98894.16;6124502;23;20199;-88
2023/10/14 08:17:48;;;;;;;20.50;17.40;;;;;;;15.35;100.00;98901.16;6098661;23;20163;-88
2023/10/14 08:20:19;;;;;;;21.80;17.83;;;;;;;15.46;100.00;98871.50;6123938;23;20188;-88
2023/10/14 08:22:56;;;;;;;18.70;16.63;;;;;;;15.56;100.00;98882.34;6123808;23;20190;-88
2023/10/14 08:25:25;;;;;;;20.60;17.30;;;;;;;15.65;100.00;98876.13;6123967;23;20176;-88
2023/10/14 08:28:00;;;;;;;21.90;17.57;;;;;;;15.79;100.00;98866.41;6101120;23;20164;-88
2023/10/14 08:30:34;;;;;;;19.00;15.70;;;;;;;15.90;100.00;98878.00;6078135;23;20159;-88
2023/10/14 08:33:07;;;;;;;18.33;15.67;;;;;;;16.01;100.00;98874.19;6100593;23;20172;-88
2023/10/14 08:35:44;;;;;;;21.33;15.80;;;;;;;16.12;100.00;98872.28;6100484;23;20174;-87
2023/10/14 08:38:14;;;;;;;18.67;16.50;;;;;;;16.24;100.00;98867.38;6124434;23;20176;-88
2023/10/14 08:41:08;;;;;;;19.70;17.00;;;;;;;16.36;100.00;98872.50;6100557;23;20149;-88
2023/10/14 08:43:38;;;;;;;18.43;15.87;;;;;;;16.36;100.00;98870.59;6123303;23;20164;-89
2023/10/14 08:46:08;;;;;;;20.37;16.37;;;;;;;16.46;100.00;98858.94;6125503;23;20152;-89
2023/10/14 08:48:40;;;;;;;17.67;15.17;;;;;;;16.61;100.00;98858.94;6124409;23;20611;-89
2023/10/14 08:51:09;;;;;;;17.73;15.73;;;;;;;16.79;100.00;98860.19;6123797;23;20195;-89
2023/10/14 08:53:43;;;;;;;18.33;14.27;;;;;;;16.95;100.00;98864.41;6123678;23;20172;-87
2023/10/14 08:56:10;;;;;;;16.83;15.03;;;;;;;17.11;100.00;98850.53;6124246;23;20172;-78
2023/10/14 08:58:40;;;;;;;17.17;15.37;;;;;;;17.26;100.00;98849.63;6123638;23;20195;-78
2023/10/14 09:01:15;;;;;;;16.90;15.10;;;;;;;17.40;100.00;98850.59;6123978;23;20226;-78
2023/10/14 09:03:49;;;;;;;17.83;15.90;;;;;;;17.49;100.00;98848.91;6123961;23;20159;-78
2023/10/14 09:06:18;;;;;;;17.63;15.73;;;;;;;17.59;100.00;98859.66;6124456;23;20215;-78
2023/10/14 09:08:48;;;;;;;16.77;15.07;;;;;;;17.70;100.00;98852.25;6135606;23;20195;-79
2023/10/14 09:11:33;;;;;;;17.47;15.63;;;;;;;17.84;100.00;98847.78;6153369;23;20257;-77
2023/10/14 09:14:02;;;;;;;16.83;15.03;;;;;;;17.95;100.00;98843.09;6128646;23;20152;-77
2023/10/14 09:16:32;;;;;;;17.00;15.27;;;;;;;18.06;100.00;98841.88;6153399;23;20230;-78
2023/10/14 09:19:00;;;;;;;16.80;15.13;;;;;;;18.17;100.00;98845.28;6154598;23;20192;-78
2023/10/14 09:21:31;;;;;;;17.57;15.73;;;;;;;18.24;100.00;98840.34;6129707;23;20176;-78
2023/10/14 09:24:07;;;;;;;17.67;15.83;;;;;;;18.38;100.00;98849.41;6154238;23;20168;-78
2023/10/14 09:26:43;;;;;;;17.97;16.10;;;;;;;18.57;100.00;98839.41;6155441;23;20226;-78
2023/10/14 09:29:11;;;;;;;18.03;16.13;;;;;;;18.65;100.00;98840.69;6154104;23;20193;-78
2023/10/14 09:31:47;;;;;;;16.17;14.50;;;;;;;18.87;100.00;98847.16;6155433;23;20146;-78
2023/10/14 09:34:24;;;;;;;16.33;14.63;;;;;;;19.02;100.00;98851.59;6155766;23;20185;-79
2023/10/14 09:36:55;;;;;;;16.93;15.20;;;;;;;19.16;100.00;98846.22;6155942;23;20167;-78
2023/10/14 09:39:25;;;;;;;15.90;14.30;;;;;;;19.32;100.00;98856.56;6152716;23;20197;-78
2023/10/14 09:41:56;;;;;;;15.73;14.07;;;;;;;19.54;100.00;98847.84;6155377;23;20225;-77
2023/10/14 09:44:25;;;;;;;16.47;14.37;;;;;;;19.73;100.00;98842.34;6155606;23;20189;-78
2023/10/14 09:47:00;;;;;;;14.83;12.97;;;;;;;19.99;100.00;98838.06;6155742;23;20159;-78
2023/10/14 09:49:28;;;;;;;14.90;13.40;;;;;;;20.18;100.00;98846.97;6129156;23;20621;-79
2023/10/14 09:51:56;;;;;;;16.73;13.43;;;;;;;20.30;100.00;98843.75;6129687;23;20167;-78
2023/10/14 09:54:24;;;;;;;16.73;12.67;;;;;;;20.36;100.00;98841.75;6149974;23;20200;-79
2023/10/14 09:56:55;;;;;;;13.50;11.83;;;;;;;20.43;100.00;98847.59;6127481;23;20620;-78
2023/10/14 09:59:23;;;;;;;15.07;12.33;;;;;;;20.48;100.00;98829.25;6153301;23;20222;-78
2023/10/14 10:01:54;;;;;;;13.23;11.90;;;;;;;20.59;100.00;98829.84;6155461;23;20155;-78
2023/10/14 10:04:30;;;;;;;12.20;10.67;;;;;;;20.65;100.00;98836.81;6155193;23;20701;-78
2023/10/14 10:07:23;;;;;;;12.83;10.83;;;;;;;20.78;100.00;98830.53;6155293;23;20161;-78
2023/10/14 10:10:15;;;;;;;11.83;9.70;;;;;;;20.96;100.00;98821.41;6129923;23;20411;-78
2023/10/14 10:12:43;;;;;;;10.57;9.47;;;;;;;21.10;100.00;98815.91;6103661;23;20190;-78
2023/10/14 10:15:19;;;;;;;11.70;9.15;;;;;;;21.27;100.00;98821.56;6129897;23;20201;-78
2023/10/14 10:17:56;;;;;;;11.35;9.05;;;;;;;21.42;100.00;98832.06;6129418;23;20250;-79
2023/10/14 10:20:29;;;;;;;10.88;8.93;;;;;;;21.60;100.00;98827.56;6155326;23;20630;-78
2023/10/14 10:23:01;;;;;;;10.82;8.80;;;;;;;21.74;100.00;98830.22;6105575;23;20186;-79
2023/10/14 10:25:56;;;;;;;10.18;7.53;;;;;;;21.86;100.00;98824.97;6155389;23;20166;-78
2023/10/14 10:28:25;;;;;;;9.40;7.63;;;;;;;22.01;100.00;98800.06;6154842;23;20171;-78
2023/10/14 10:30:58;;;;;;;13.25;7.30;;;;;;;22.20;100.00;98800.63;6153304;23;20611;-78
2023/10/14 10:33:45;;;;;;;11.63;7.22;;;;;;;22.43;100.00;98817.72;6151997;23;20163;-77
2023/10/14 10:36:27;;;;;;;8.63;5.72;;;;;;;22.63;100.00;98791.75;6151225;23;20159;-77
2023/10/14 10:39:15;;;;;;;7.40;4.20;;;;;;;23.07;100.00;98777.81;6151416;23;20171;-78
2023/10/14 10:41:50;;;;;;;11.13;4.10;;;;;;;23.49;100.00;98773.47;6151802;23;20171;-85
2023/10/14 10:44:19;;;;;;;7.30;4.07;;;;;;;23.87;100.00;98761.78;6102237;23;20631;-85
2023/10/14 10:46:53;;;;;;;5.50;3.55;;;;;;;24.12;100.00;98771.81;6127302;23;20561;-85
2023/10/14 10:49:51;;;;;;;6.25;4.03;;;;;;;24.35;100.00;98769.66;6104924;23;20595;-85
2023/10/14 10:52:21;;;;;;;4.53;2.50;;;;;;;24.67;95.44;98755.25;6102933;23;20215;-85
2023/10/14 10:54:51;;;;;;;7.25;2.70;;;;;;;24.83;91.84;98737.09;6104810;23;20171;-85
2023/10/14 10:57:22;;;;;;;4.05;2.53;;;;;;;25.02;89.28;98741.31;6127353;23;20163;-85
2023/10/14 10:59:54;;;;;;;4.38;2.58;;;;;;;25.14;85.42;98742.19;6128310;23;20183;-85
2023/10/14 11:02:22;;;;;;;3.55;2.97;;;;;;;25.24;83.67;98732.75;6154758;23;20169;-84
2023/10/14 11:04:54;;;;;;;9.00;2.78;;;;;;;25.27;81.97;98732.88;6130934;23;20165;-85
2023/10/14 11:07:23;;;;;;;7.75;2.85;;;;;;;25.37;80.09;98720.66;6105644;23;20178;-84
2023/10/14 11:09:56;;;;;;;4.53;2.55;;;;;;;25.39;79.22;98732.09;6129337;23;20281;-85
2023/10/14 11:12:29;;;;;;;4.20;2.30;;;;;;;25.46;78.16;98740.56;6130321;23;20274;-85
2023/10/14 11:15:00;;;;;;;3.90;2.25;;;;;;;25.49;77.45;98731.66;6105380;23;20175;-84
2023/10/14 11:17:27;;;;;;;3.20;2.40;;;;;;;25.41;77.63;98722.41;6129119;23;20178;-85
2023/10/14 11:19:55;;;;;;;3.38;2.30;;;;;;;25.50;76.38;98716.81;6155040;23;20187;-84
2023/10/14 11:22:26;;;;;;;2.97;2.33;;;;;;;25.63;75.52;98714.91;6130132;23;20187;-84
2023/10/14 11:24:58;;;;;;;3.50;2.40;;;;;;;25.65;77.03;98718.94;6129539;23;20174;-84
2023/10/14 11:27:32;;;;;;;14.82;3.42;;;;;;;25.83;73.59;98719.53;6154819;23;20562;-85
2023/10/14 11:30:00;;;;;;;6.45;2.60;;;;;;;25.91;73.51;98724.09;6155131;23;20234;-84
2023/10/14 11:32:28;;;;;;;3.88;2.47;;;;;;;26.02;73.44;98711.53;6154710;23;20171;-85
2023/10/14 11:35:03;;;;;;;4.50;2.25;;;;;;;26.16;72.07;98714.72;6154916;23;20167;-85
2023/10/14 11:37:38;;;;;;;3.92;2.50;;;;;;;26.27;71.40;98718.63;6154604;23;20171;-85
2023/10/14 11:40:36;;;;;;;4.90;2.13;;;;;;;26.47;68.99;98705.09;6154761;23;20237;-84
2023/10/14 11:43:11;;;;;;;5.00;2.20;;;;;;;26.43;69.00;98698.69;6128552;23;20163;-84
2023/10/14 11:45:45;;;;;;;3.20;2.10;;;;;;;26.45;68.06;98685.44;6129220;23;20178;-84
2023/10/14 11:48:27;;;;;;;2.42;2.17;;;;;;;26.50;69.55;98683.22;6130938;23;20178;-84
2023/10/14 11:51:00;;;;;;;4.50;1.90;;;;;;;26.44;67.93;98676.41;6102522;23;20241;-84
2023/10/14 11:53:32;;;;;;;5.30;2.72;;;;;;;26.42;67.37;98689.66;6154587;23;20147;-84
2023/10/14 11:56:03;;;;;;;3.03;2.03;;;;;;;26.49;67.07;98678.91;6129102;23;20208;-84
2023/10/14 11:58:33;;;;;;;7.10;2.55;;;;;;;26.38;67.39;98679.72;6104536;23;20167;-84
2023/10/14 12:01:12;;;;;;;5.47;2.72;;;;;;;26.36;67.41;98685.56;6130264;23;20179;-84
2023/10/14 12:03:45;;;;;;;2.85;2.17;;;;;;;26.46;68.10;98665.84;6105046;23;20163;-84
2023/10/14 12:06:19;;;;;;;3.92;2.30;;;;;;;26.53;68.29;98666.06;6104786;23;20173;-84
2023/10/14 12:08:53;;;;;;;3.95;2.30;;;;;;;26.65;67.17;98666.03;6154573;23;20206;-84
2023/10/14 12:11:26;;;;;;;2.80;2.20;;;;;;;26.49;68.02;98667.13;6128508;23;20271;-84
2023/10/14 12:13:55;;;;;;;4.63;2.40;;;;;;;26.33;66.39;98663.47;6105662;23;20160;-84
2023/10/14 12:16:27;;;;;;;4.38;2.63;;;;;;;26.16;66.79;98665.31;6129215;23;20167;-85
2023/10/14 12:18:59;;;;;;;5.40;2.53;;;;;;;26.03;67.80;98663.75;6104709;23;20175;-84
2023/10/14 12:21:27;;;;;;;4.82;2.35;;;;;;;25.90;67.60;98664.88;6154432;23;20250;-84
2023/10/14 12:23:56;;;;;;;4.43;2.75;;;;;;;25.90;67.15;98659.38;6153849;23;20179;-84
2023/10/14 12:26:32;;;;;;;4.50;2.60;;;;;;;25.78;67.03;98664.88;6154475;23;20231;-84
2023/10/14 12:29:09;;;;;;;3.33;2.58;;;;;;;25.70;67.57;98652.09;6153959;23;20155;-84
2023/10/14 12:31:41;;;;;;;3.42;2.50;;;;;;;25.89;66.78;98662.47;6127870;23;20641;-84
2023/10/14 12:34:11;;;;;;;3.85;2.50;;;;;;;25.82;67.42;98657.56;6128994;23;20166;-84
2023/10/14 12:36:42;;;;;;;6.72;2.45;;;;;;;25.95;67.44;98655.59;6154078;23;20178;-84
2023/10/14 12:39:33;;;;;;;4.05;2.58;;;;;;;25.97;67.22;98656.88;6104399;23;20167;-84
2023/10/14 12:42:03;;;;;;;4.15;2.65;;;;;;;26.00;66.66;98658.91;6104104;23;20194;-84
2023/10/14 12:44:36;;;;;;;5.10;2.40;;;;;;;26.13;65.34;98655.00;6129959;23;20259;-85
2023/10/14 12:47:10;;;;;;;5.97;2.35;;;;;;;26.18;65.30;98654.78;6154269;23;20648;-84
2023/10/14 12:49:40;;;;;;;2.70;2.30;;;;;;;26.37;65.87;98648.72;6153133;23;20166;-84
2023/10/14 12:52:12;;;;;;;4.30;2.38;;;;;;;26.38;64.37;98646.75;6128818;23;20182;-84
2023/10/14 12:54:54;;;;;;;5.90;2.40;;;;;;;26.39;63.46;98645.63;6129983;23;20167;-85
2023/10/14 12:57:26;;;;;;;2.33;2.13;;;;;;;26.36;64.03;98655.38;6154089;23;20154;-84
2023/10/14 12:59:57;;;;;;;5.25;2.50;;;;;;;26.34;65.15;98641.19;6151925;23;20185;-84
2023/10/14 13:02:25;;;;;;;4.22;2.40;;;;;;;26.38;64.08;98646.75;6128128;23;20168;-84
2023/10/14 13:04:53;;;;;;;5.10;2.50;;;;;;;26.18;64.48;98635.56;6128028;23;20222;-84
2023/10/14 13:07:22;;;;;;;2.72;2.28;;;;;;;26.29;64.36;98650.44;6154008;23;20159;-84
2023/10/14 13:09:54;;;;;;;3.22;2.30;;;;;;;26.29;65.02;98644.97;6151837;23;20516;-84
2023/10/14 13:12:29;;;;;;;3.25;2.30;;;;;;;26.37;64.87;98645.97;6126530;23;20641;-84
2023/10/14 13:15:05;;;;;;;2.45;2.20;;;;;;;26.37;64.45;98643.22;6129739;23;20159;-84
2023/10/14 13:17:38;;;;;;;2.95;2.30;;;;;;;26.51;63.93;98651.88;6127747;23;20249;-84
2023/10/14 13:20:27;;;;;;;2.65;2.30;;;;;;;26.66;64.02;98647.59;6129848;23;20250;-84
2023/10/14 13:22:59;;;;;;;3.85;2.28;;;;;;;26.69;63.67;98646.88;6153319;23;20171;-85
2023/10/14 13:25:29;;;;;;;3.17;2.38;;;;;;;26.60;64.10;98655.28;6128401;23;20167;-84
2023/10/14 13:27:57;;;;;;;4.40;2.30;;;;;;;26.44;65.43;98667.34;6153591;23;20202;-84
2023/10/14 13:30:26;;;;;;;2.40;2.20;;;;;;;26.39;65.46;98660.16;6128507;23;20171;-84
2023/10/14 13:33:01;;;;;;;2.60;2.33;;;;;;;26.38;65.83;98668.72;6153465;23;20163;-84
2023/10/14 13:35:31;;;;;;;4.03;2.65;;;;;;;26.31;66.37;98674.81;6154011;23;20264;-83
2023/10/14 13:38:03;;;;;;;4.57;2.13;;;;;;;26.21;66.42;98673.34;6128152;23;20218;-84
2023/10/14 13:40:34;;;;;;;3.55;2.40;;;;;;;26.16;66.59;98664.50;6129551;23;20186;-84
2023/10/14 13:43:09;;;;;;;4.15;2.38;;;;;;;25.99;66.56;98667.50;6153115;23;20186;-84
2023/10/14 13:45:43;;;;;;;4.03;2.55;;;;;;;25.78;67.58;98664.88;6153987;23;20197;-84
2023/10/14 13:48:13;;;;;;;3.50;2.58;;;;;;;25.60;67.96;98660.75;6153951;23;20178;-84
2023/10/14 13:50:42;;;;;;;4.18;2.67;;;;;;;25.50;69.32;98661.16;6128569;23;20640;-84
2023/10/14 13:53:17;;;;;;;5.03;3.00;;;;;;;25.42;69.38;98660.13;6153842;23;20242;-84
2023/10/14 13:55:45;;;;;;;3.75;2.92;;;;;;;25.32;70.10;98669.59;6105357;23;20625;-83
2023/10/14 13:58:17;;;;;;;5.50;3.53;;;;;;;25.17;71.40;98672.97;6153889;23;20222;-83
2023/10/14 14:01:00;;;;;;;6.45;3.47;;;;;;;24.99;73.95;98671.56;6154026;23;20199;-83
2023/10/14 14:03:38;;;;;;;7.55;4.20;;;;;;;24.80;75.10;98663.00;6129811;23;20221;-84
2023/10/14 14:06:09;;;;;;;8.30;5.05;;;;;;;24.69;76.09;98665.34;6155294;23;20151;-84
2023/10/14 14:08:36;;;;;;;7.72;4.90;;;;;;;24.64;77.69;98659.25;6155329;23;20203;-84
2023/10/14 14:11:07;;;;;;;5.47;4.88;;;;;;;24.52;80.15;98669.03;6155760;23;20650;-84
2023/10/14 14:13:38;;;;;;;6.13;5.40;;;;;;;24.42;83.66;98674.09;6155491;23;20162;-84
2023/10/14 14:16:09;;;;;;;7.82;5.78;;;;;;;24.36;85.72;98686.38;6155420;23;20200;-84
2023/10/14 14:18:40;;;;;;;7.30;4.88;;;;;;;24.34;89.14;98681.25;6155228;23;20614;-84
2023/10/14 14:21:12;;;;;;;7.88;5.05;;;;;;;24.35;94.42;98677.38;6129354;23;20188;-84
2023/10/14 14:23:46;;;;;;;8.55;5.22;;;;;;;24.27;100.00;98677.41;6155161;23;20182;-84
2023/10/14 14:26:18;;;;;;;6.47;4.50;;;;;;;24.16;91.29;98689.88;6128967;23;20178;-84
2023/10/14 14:28:51;;;;;;;7.32;5.05;;;;;;;24.16;87.03;98682.50;6155096;23;20168;-84
2023/10/14 14:31:23;;;;;;;6.43;3.22;;;;;;;24.29;81.64;98683.38;6155083;23;20234;-84
2023/10/14 14:33:54;;;;;;;5.72;2.95;;;;;;;24.22;80.22;98683.88;6130217;23;20249;-84
2023/10/14 14:36:44;;;;;;;4.65;2.40;;;;;;;24.19;78.41;98679.09;6152700;23;20167;-84
2023/10/14 14:39:15;;;;;;;4.18;2.58;;;;;;;24.20;78.56;98674.41;6155363;23;20159;-84
2023/10/14 14:41:54;;;;;;;2.95;2.25;;;;;;;24.10;79.32;98678.31;6155450;23;20251;-84
2023/10/14 14:44:26;;;;;;;3.67;2.47;;;;;;;24.00;78.02;98670.47;6105607;23;20609;-83
2023/10/14 14:46:58;;;;;;;5.18;2.30;;;;;;;24.02;78.06;98670.97;6129267;23;20166;-83
2023/10/14 14:49:28;;;;;;;2.97;2.25;;;;;;;23.95;77.60;98674.19;6155052;23;20646;-84
2023/10/14 14:51:56;;;;;;;3.85;2.20;;;;;;;23.90;76.15;98663.44;6154999;23;20691;-84
2023/10/14 14:54:29;;;;;;;3.42;2.60;;;;;;;23.86;75.81;98650.75;6154903;23;20671;-84
2023/10/14 14:56:59;;;;;;;4.78;2.58;;;;;;;23.81;76.85;98670.09;6130228;23;20163;-84
2023/10/14 14:59:31;;;;;;;4.70;2.08;;;;;;;23.69;79.99;98666.13;6154968;23;20590;-84
2023/10/14 15:02:01;;;;;;;3.67;2.38;;;;;;;23.62;80.01;98662.28;6155136;23;20211;-84
2023/10/14 15:04:35;;;;;;;4.75;2.30;;;;;;;23.52;80.68;98655.25;6155091;23;20265;-84
2023/10/14 15:07:08;;;;;;;7.57;2.70;;;;;;;23.45;80.78;98663.19;6130598;23;20151;-84
2023/10/14 15:09:37;;;;;;;3.20;2.83;;;;;;;23.39;82.19;98663.63;6155195;23;20253;-84
2023/10/14 15:12:07;;;;;;;5.80;3.60;;;;;;;23.33;83.59;98663.00;6154794;23;20194;-84
2023/10/14 15:14:38;;;;;;;4.57;3.08;;;;;;;23.21;86.98;98666.44;6154640;23;20214;-84
2023/10/14 15:17:07;;;;;;;4.20;3.10;;;;;;;23.11;91.30;98672.25;6104710;23;20249;-84
2023/10/14 15:19:37;;;;;;;3.85;3.40;;;;;;;23.03;98.26;98675.78;6104521;23;20511;-84
2023/10/14 15:22:08;;;;;;;4.30;2.88;;;;;;;23.00;89.77;98673.72;6154985;23;20187;-84
2023/10/14 15:24:50;;;;;;;5.22;3.40;;;;;;;22.89;91.10;98664.25;6154388;23;20165;-84
2023/10/14 15:27:19;;;;;;;4.07;3.00;;;;;;;22.86;87.45;98670.38;6154951;23;20590;-84
2023/10/14 15:29:49;;;;;;;5.78;2.20;;;;;;;22.80;85.92;98669.72;6129935;23;20212;-84
2023/10/14 15:32:20;;;;;;;3.45;2.47;;;;;;;22.82;85.08;98675.66;6128791;23;20170;-84
2023/10/14 15:34:51;;;;;;;6.60;2.35;;;;;;;22.81;83.86;98671.34;6154711;23;20613;-85
2023/10/14 15:37:26;;;;;;;6.07;2.50;;;;;;;22.77;85.10;98681.28;6130894;23;20155;-85
2023/10/14 15:39:55;;;;;;;5.93;2.42;;;;;;;22.63;89.25;98682.56;6129259;23;20157;-84
2023/10/14 15:42:23;;;;;;;3.22;2.25;;;;;;;22.54;89.53;98665.34;6154940;23;20264;-84
2023/10/14 15:44:54;;;;;;;3.13;2.78;;;;;;;22.47;87.53;98676.75;6128125;23;20606;-84
2023/10/14 15:47:22;;;;;;;3.53;2.55;;;;;;;22.39;87.94;98678.38;6128099;23;20625;-84
2023/10/14 15:49:50;;;;;;;3.45;2.25;;;;;;;22.34;85.95;98678.53;6104012;23;20214;-84
2023/10/14 15:52:18;;;;;;;4.15;2.50;;;;;;;22.26;84.28;98676.56;6128666;23;20171;-84
2023/10/14 15:54:47;;;;;;;2.45;2.22;;;;;;;22.26;82.25;98679.28;6154214;23;20193;-84
2023/10/14 15:57:17;;;;;;;3.78;2.17;;;;;;;22.42;80.07;98681.56;6104632;23;20170;-84
2023/10/14 15:59:45;;;;;;;3.40;2.50;;;;;;;22.33;80.77;98687.00;6154294;23;20167;-85
2023/10/14 16:02:15;;;;;;;3.25;2.13;;;;;;;22.18;81.16;98687.47;6128806;23;20274;-85
2023/10/14 16:04:46;;;;;;;3.50;2.15;;;;;;;22.16;81.33;98689.72;6154228;23;20170;-85
2023/10/14 16:07:16;;;;;;;4.80;2.33;;;;;;;22.09;81.54;98690.19;6154149;23;20229;-84
2023/10/14 16:09:48;;;;;;;4.43;2.40;;;;;;;22.02;82.33;98692.59;6153708;23;20189;-84
2023/10/14 16:12:20;;;;;;;6.22;2.55;;;;;;;22.09;81.79;98684.72;6129300;23;20188;-84
2023/10/14 16:14:51;;;;;;;3.90;2.40;;;;;;;22.00;82.09;98697.53;6153848;23;20162;-84
2023/10/14 16:17:19;;;;;;;4.40;2.30;;;;;;;21.92;82.59;98684.66;6154219;23;20347;-84
2023/10/14 16:19:48;;;;;;;3.65;2.38;;;;;;;21.86;82.79;98689.44;6153929;23;20247;-84
2023/10/14 16:22:19;;;;;;;3.80;2.45;;;;;;;21.84;82.56;98685.41;6128695;23;20183;-84
2023/10/14 16:24:48;;;;;;;4.15;2.33;;;;;;;21.72;83.72;98687.94;6154070;23;20173;-84
2023/10/14 16:27:17;;;;;;;2.65;2.20;;;;;;;21.67;84.38;98697.06;6127478;23;20163;-84
2023/10/14 16:29:45;;;;;;;3.47;2.42;;;;;;;21.66;84.92;98689.19;6127690;23;20192;-84
2023/10/14 16:32:13;;;;;;;3.13;2.55;;;;;;;21.62;84.33;98689.03;6128858;23;20234;-85
2023/10/14 16:34:43;;;;;;;4.32;2.30;;;;;;;21.55;85.71;98705.03;6128420;23;20202;-84
2023/10/14 16:37:10;;;;;;;4.38;2.35;;;;;;;21.52;85.27;98697.47;6128438;23;20246;-85
2023/10/14 16:39:39;;;;;;;6.07;2.40;;;;;;;21.50;84.65;98699.72;6154239;23;20179;-84
2023/10/14 16:42:07;;;;;;;3.08;2.50;;;;;;;21.49;84.77;98700.84;6128681;23;20190;-84
2023/10/14 16:44:38;;;;;;;5.75;2.35;;;;;;;21.45;84.89;98703.38;6081623;23;20222;-85
2023/10/14 16:47:06;;;;;;;3.08;2.28;;;;;;;21.43;85.52;98712.97;6105406;23;20618;-86
2023/10/14 16:49:34;;;;;;;3.50;2.30;;;;;;;21.42;84.86;98714.91;6128876;23;20168;-86
2023/10/14 16:52:04;;;;;;;3.53;2.10;;;;;;;21.40;85.67;98716.34;6105761;23;20210;-86
2023/10/14 16:54:33;;;;;;;6.47;2.53;;;;;;;21.46;84.92;98718.59;6105199;23;20167;-87
2023/10/14 16:57:04;;;;;;;2.35;2.15;;;;;;;21.50;83.96;98714.16;6104430;23;20191;-87
2023/10/14 16:59:32;;;;;;;3.35;2.10;;;;;;;21.47;84.18;98722.94;6129569;23;20190;-87
2023/10/14 17:02:02;;;;;;;3.92;2.33;;;;;;;21.41;83.65;98724.22;6104795;23;20191;-86
2023/10/14 17:04:31;;;;;;;3.33;2.03;;;;;;;21.44;83.63;98720.03;6105101;23;20171;-86
2023/10/14 17:07:01;;;;;;;3.88;2.30;;;;;;;21.42;83.61;98717.63;6080920;23;20172;-86
2023/10/14 17:09:29;;;;;;;2.97;1.88;;;;;;;21.43;83.31;98721.16;6104960;23;20207;-86
2023/10/14 17:11:56;;;;;;;2.85;2.20;;;;;;;21.41;83.34;98724.22;6104172;23;20215;-86
2023/10/14 17:14:28;;;;;;;2.63;2.35;;;;;;;21.46;82.88;98713.16;6104174;23;20175;-86
2023/10/14 17:17:11;;;;;;;3.03;1.77;;;;;;;21.48;82.62;98724.56;6105588;23;20182;-87
2023/10/14 17:19:39;;;;;;;4.07;1.80;;;;;;;21.46;82.17;98721.31;6081758;23;20167;-87
2023/10/14 17:22:08;;;;;;;2.47;2.08;;;;;;;21.41;82.14;98726.94;6104030;23;20195;-86
2023/10/14 17:24:36;;;;;;;2.40;2.03;;;;;;;21.39;82.30;98726.44;6104501;23;20168;-87
2023/10/14 17:27:05;;;;;;;3.30;1.98;;;;;;;21.39;83.04;98734.59;6104110;23;20174;-87
2023/10/14 17:29:38;;;;;;;2.60;1.88;;;;;;;21.38;82.95;98735.72;6106520;23;20242;-86
2023/10/14 17:32:13;;;;;;;4.40;2.05;;;;;;;21.31;83.89;98738.09;6081987;23;20175;-87
2023/10/14 17:34:44;;;;;;;3.50;2.00;;;;;;;21.25;84.00;98725.69;6082038;23;20170;-86
2023/10/14 17:37:20;;;;;;;4.22;2.00;;;;;;;21.32;83.17;98723.31;6082330;23;20180;-87
2023/10/14 17:39:53;;;;;;;2.67;1.75;;;;;;;21.43;82.37;98729.31;6106357;23;20199;-86
2023/10/14 17:42:21;;;;;;;2.03;1.70;;;;;;;21.38;82.45;98740.34;6130863;23;20186;-86
2023/10/14 17:44:52;;;;;;;1.98;1.73;;;;;;;21.37;82.68;98744.22;6107368;23;20259;-86
2023/10/14 17:47:22;;;;;;;2.80;1.80;;;;;;;21.32;83.24;98749.78;6082441;23;20245;-87
2023/10/14 17:49:51;;;;;;;2.40;1.50;;;;;;;21.29;84.42;98756.66;6106682;23;20179;-87
2023/10/14 17:52:21;;;;;;;2.40;1.65;;;;;;;21.33;84.35;98756.81;6156389;23;20246;-86
2023/10/14 17:54:53;;;;;;;2.85;1.88;;;;;;;21.56;82.78;98749.44;6106018;23;20177;-87
2023/10/14 17:57:22;;;;;;;2.45;1.60;;;;;;;21.56;82.62;98765.81;6106890;23;20176;-87
2023/10/14 17:59:56;;;;;;;4.10;1.70;;;;;;;21.53;83.35;98759.03;6130109;23;20175;-87
2023/10/14 18:02:25;;;;;;;2.03;1.80;;;;;;;21.60;83.44;98762.16;6130533;23;20250;-87
2023/10/14 18:04:58;;;;;;;3.65;1.95;;;;;;;21.63;83.90;98766.16;6131130;23;20148;-86
2023/10/14 18:07:32;;;;;;;3.10;1.95;;;;;;;21.65;84.26;98761.97;6084151;23;20164;-87
2023/10/14 18:10:03;;;;;;;3.47;2.00;;;;;;;21.51;85.22;98766.72;6130020;23;20209;-87
2023/10/14 18:12:34;;;;;;;2.25;1.88;;;;;;;21.51;85.67;98772.16;6105741;23;20191;-86
2023/10/14 18:15:09;;;;;;;2.38;1.90;;;;;;;21.41;87.06;98773.25;6130269;23;20258;-87
2023/10/14 18:17:42;;;;;;;2.10;1.90;;;;;;;21.32;87.38;98777.81;6106064;23;20171;-87
2023/10/14 18:20:16;;;;;;;2.88;1.90;;;;;;;21.35;87.98;98773.69;6108044;23;20170;-87
2023/10/14 18:22:53;;;;;;;3.67;2.08;;;;;;;21.27;89.10;98782.59;6105959;23;20266;-87
2023/10/14 18:25:31;;;;;;;3.75;2.03;;;;;;;21.25;89.69;98768.47;6107464;23;20258;-85
2023/10/14 18:28:01;;;;;;;2.55;1.88;;;;;;;21.26;89.84;98775.53;6131088;23;20242;-87
2023/10/14 18:30:34;;;;;;;4.95;2.10;;;;;;;21.16;91.12;98778.50;6130281;23;20254;-86
2023/10/14 18:33:05;;;;;;;4.18;2.00;;;;;;;21.13;91.44;98776.38;6107615;23;20180;-86
2023/10/14 18:35:33;;;;;;;2.72;2.05;;;;;;;21.08;92.38;98782.75;6106458;23;20174;-86
2023/10/14 18:38:10;;;;;;;3.38;1.98;;;;;;;21.05;94.23;98784.16;6106184;23;20625;-85
2023/10/14 18:40:42;;;;;;;2.13;1.90;;;;;;;21.14;95.09;98786.19;6107116;23;20175;-85
2023/10/14 18:43:11;;;;;;;3.72;2.20;;;;;;;21.11;95.86;98798.47;6105930;23;20167;-86
2023/10/14 18:45:42;;;;;;;3.67;2.20;;;;;;;21.13;97.24;98790.00;6155983;23;20155;-87
2023/10/14 18:48:12;;;;;;;3.97;2.17;;;;;;;21.03;98.89;98793.75;6130284;23;20164;-86
2023/10/14 18:50:50;;;;;;;2.47;1.92;;;;;;;20.97;100.00;98789.53;6129598;23;20167;-86
2023/10/14 18:53:25;;;;;;;2.30;2.10;;;;;;;21.02;100.00;98789.41;6155651;23;20163;-87
2023/10/14 18:55:57;;;;;;;2.53;2.20;;;;;;;21.00;100.00;98789.72;6105300;23;20289;-86
2023/10/14 18:58:32;;;;;;;4.18;2.50;;;;;;;21.00;100.00;98795.16;6107173;23;20174;-87
2023/10/14 19:01:05;;;;;;;4.65;2.50;;;;;;;20.93;100.00;98797.53;6155588;23;20178;-87
2023/10/14 19:03:39;;;;;;;4.28;2.40;;;;;;;20.89;100.00;98806.63;6130017;23;20193;-87
2023/10/14 19:06:09;;;;;;;3.10;2.42;;;;;;;20.91;100.00;98804.38;6130278;23;20167;-87
2023/10/14 19:08:37;;;;;;;3.03;2.25;;;;;;;20.92;100.00;98809.53;6100602;23;20285;-87
2023/10/14 19:11:11;;;;;;;3.33;2.50;;;;;;;20.99;100.00;98807.19;6101892;23;20187;-87
2023/10/14 19:13:52;;;;;;;3.42;2.22;;;;;;;20.92;100.00;98806.00;6102979;23;20170;-87
2023/10/14 19:16:21;;;;;;;3.13;2.38;;;;;;;20.83;100.00;98813.28;6124983;23;20178;-87
2023/10/14 19:18:49;;;;;;;3.78;2.50;;;;;;;20.86;100.00;98809.94;6077346;23;20172;-87
2023/10/14 19:21:31;;;;;;;4.03;2.53;;;;;;;20.82;100.00;98823.34;6125300;23;20183;-87
2023/10/14 19:24:04;;;;;;;3.67;2.42;;;;;;;20.80;100.00;98816.63;6125151;23;20171;-86
2023/10/14 19:26:32;;;;;;;3.78;2.70;;;;;;;20.90;100.00;98822.63;6125330;23;20622;-87
2023/10/14 19:29:00;;;;;;;4.00;2.20;;;;;;;20.87;100.00;98825.97;6124828;23;20606;-86
2023/10/14 19:31:35;;;;;;;3.53;2.33;;;;;;;21.01;100.00;98834.09;6101152;23;20512;-87
2023/10/14 19:34:07;;;;;;;4.67;2.10;;;;;;;20.79;100.00;98832.13;6102914;23;20238;-87
2023/10/14 19:36:34;;;;;;;3.27;2.00;;;;;;;20.72;100.00;98834.47;6101956;23;20170;-87
2023/10/14 19:39:04;;;;;;;3.30;1.90;;;;;;;20.60;100.00;98836.91;6125163;23;20170;-87
2023/10/14 19:41:37;;;;;;;2.87;1.80;;;;;;;20.51;100.00;98836.00;6078562;23;20227;-87
2023/10/14 19:44:05;;;;;;;3.37;2.10;;;;;;;20.60;100.00;98836.91;6074657;23;20259;-87
2023/10/14 19:46:33;;;;;;;5.47;2.90;;;;;;;20.46;100.00;98844.28;6124365;23;20606;-87
2023/10/14 19:49:05;;;;;;;3.40;2.43;;;;;;;20.33;100.00;98837.72;6101059;23;20170;-87
2023/10/14 19:51:38;;;;;;;2.73;2.00;;;;;;;20.20;100.00;98842.00;6101760;23;20183;-87
2023/10/14 19:54:07;;;;;;;2.40;1.80;;;;;;;20.00;100.00;98847.84;6101580;23;20208;-87